createdAt,value
2018-01-06T00:00:28.593Z,99736.06
2018-01-06T00:02:56.173Z,99744.41
2018-01-06T00:05:23.812Z,99736.63
2018-01-06T00:07:51.403Z,99741.27
2018-01-06T00:10:19.036Z,99744.97
2018-01-06T00:12:46.677Z,99744.39
2018-01-06T00:15:14.256Z,99751.59
2018-01-06T00:17:42.189Z,99751.92
2018-01-06T00:20:09.803Z,99759.13
2018-01-06T00:22:37.724Z,99756.40
2018-01-06T00:25:05.385Z,99756.89
2018-01-06T00:27:33.258Z,99747.94
2018-01-06T00:30:01.940Z,99753.28
2018-01-06T00:32:29.544Z,99758.19
2018-01-06T00:34:57.119Z,99757.55
2018-01-06T00:37:25.034Z,99759.33
2018-01-06T00:39:53.003Z,99760.79
2018-01-06T00:42:20.578Z,99764.67
2018-01-06T00:44:48.176Z,99767.45
2018-01-06T00:47:15.790Z,99772.13
2018-01-06T00:49:43.417Z,99775.34
2018-01-06T00:52:11.019Z,99784.12
2018-01-06T00:54:38.602Z,99788.23
2018-01-06T00:57:06.221Z,99795.08
2018-01-06T00:59:33.824Z,99796.62
2018-01-06T01:02:01.455Z,99798.58
2018-01-06T01:04:30.233Z,99802.72
2018-01-06T01:06:57.837Z,99802.83
2018-01-06T01:09:25.496Z,99798.80
2018-01-06T01:11:53.071Z,99795.19
2018-01-06T01:14:20.718Z,99794.28
2018-01-06T01:16:48.293Z,99791.63
2018-01-06T01:19:15.871Z,99791.27
2018-01-06T01:21:43.497Z,99805.17
2018-01-06T01:24:11.100Z,99798.55
2018-01-06T01:26:38.779Z,99799.88
2018-01-06T01:29:06.685Z,99802.83
2018-01-06T01:31:34.307Z,99803.23
2018-01-06T01:34:01.919Z,99807.88
2018-01-06T01:36:29.499Z,99813.83
2018-01-06T01:38:57.141Z,99819.46
2018-01-06T01:41:24.737Z,99821.89
2018-01-06T01:43:52.329Z,99822.52
2018-01-06T01:46:20.626Z,99831.16
2018-01-06T01:48:48.288Z,99819.63
2018-01-06T01:51:15.927Z,99824.09
2018-01-06T01:53:43.503Z,99824.73
2018-01-06T01:56:11.115Z,99820.01
2018-01-06T01:58:38.733Z,99821.83
2018-01-06T02:01:06.312Z,99825.89
2018-01-06T02:03:33.955Z,99832.05
2018-01-06T02:06:01.607Z,99833.25
2018-01-06T02:08:29.194Z,99830.55
2018-01-06T02:10:56.807Z,99844.04
2018-01-06T02:13:24.392Z,99848.10
2018-01-06T02:15:52.277Z,99844.20
2018-01-06T02:18:20.918Z,99850.02
2018-01-06T02:20:48.509Z,99855.58
2018-01-06T02:23:16.141Z,99853.75
2018-01-06T02:25:43.760Z,99863.77
2018-01-06T02:28:11.392Z,99867.07
2018-01-06T02:30:38.972Z,99865.67
2018-01-06T02:33:06.583Z,99865.00
2018-01-06T02:35:34.193Z,99863.52
2018-01-06T02:38:01.824Z,99868.56
2018-01-06T02:40:29.494Z,99866.58
2018-01-06T02:42:57.080Z,99861.05
2018-01-06T02:45:24.926Z,99866.66
2018-01-06T02:47:52.548Z,99863.95
2018-01-06T02:50:20.139Z,99862.55
2018-01-06T02:52:47.767Z,99861.41
2018-01-06T02:55:15.355Z,99864.45
2018-01-06T02:57:43.255Z,99862.13
2018-01-06T03:00:10.888Z,99861.80
2018-01-06T03:02:38.484Z,99864.30
2018-01-06T03:05:06.107Z,99865.84
2018-01-06T03:07:33.679Z,99865.63
2018-01-06T03:10:01.573Z,99867.17
2018-01-06T03:12:29.190Z,99873.31
2018-01-06T03:14:57.110Z,99882.25
2018-01-06T03:17:24.722Z,99885.13
2018-01-06T03:19:52.640Z,99897.06
2018-01-06T03:22:20.503Z,99900.11
2018-01-06T03:24:48.117Z,99897.23
2018-01-06T03:27:15.695Z,99903.77
2018-01-06T03:29:43.324Z,99906.91
2018-01-06T03:32:11.156Z,99913.66
2018-01-06T03:34:39.025Z,99912.44
2018-01-06T03:37:06.903Z,99917.24
2018-01-06T03:39:34.504Z,99917.16
2018-01-06T03:42:02.128Z,99926.02
2018-01-06T03:44:29.704Z,99929.90
2018-01-06T03:46:57.301Z,99928.66
2018-01-06T03:49:25.745Z,99934.28
2018-01-06T03:51:53.317Z,99931.37
2018-01-06T03:54:20.949Z,99928.56
2018-01-06T03:56:48.524Z,99927.56
2018-01-06T03:59:16.098Z,99926.50
2018-01-06T04:01:43.704Z,99931.14
2018-01-06T04:04:11.289Z,99938.00
2018-01-06T04:06:39.167Z,99941.95
2018-01-06T04:09:06.842Z,99936.50
2018-01-06T04:11:34.424Z,99935.69
2018-01-06T04:14:02.054Z,99945.37
2018-01-06T04:16:29.916Z,99941.20
2018-01-06T04:18:57.547Z,99941.72
2018-01-06T04:21:25.124Z,99943.22
2018-01-06T04:23:52.734Z,99938.17
2018-01-06T04:26:20.356Z,99939.17
2018-01-06T04:28:48.228Z,99952.95
2018-01-06T04:31:16.097Z,99953.64
2018-01-06T04:33:43.672Z,99960.28
2018-01-06T04:36:11.538Z,99958.11
2018-01-06T04:38:39.151Z,99958.25
2018-01-06T04:41:06.740Z,99961.39
2018-01-06T04:43:34.346Z,99960.16
2018-01-06T04:46:01.940Z,99960.48
2018-01-06T04:48:29.553Z,99959.92
2018-01-06T04:50:57.181Z,99957.92
2018-01-06T04:53:24.761Z,99953.13
2018-01-06T04:55:52.385Z,99955.71
2018-01-06T04:58:20.050Z,99957.67
2018-01-06T05:00:47.621Z,99965.13
2018-01-06T05:03:15.255Z,99969.27
2018-01-06T05:05:42.850Z,99968.02
2018-01-06T05:08:10.470Z,99972.08
2018-01-06T05:10:38.096Z,99975.63
2018-01-06T05:13:05.677Z,99977.45
2018-01-06T05:15:33.620Z,99984.39
2018-01-06T05:18:01.217Z,99984.39
2018-01-06T05:20:29.628Z,99997.78
2018-01-06T05:22:57.211Z,99999.93
2018-01-06T05:25:24.792Z,100005.22
2018-01-06T05:27:52.406Z,100013.31
2018-01-06T05:30:20.152Z,100014.73
2018-01-06T05:32:47.832Z,100022.11
2018-01-06T05:35:15.421Z,100022.25
2018-01-06T05:37:43.001Z,100031.37
2018-01-06T05:40:10.616Z,100042.08
2018-01-06T05:42:38.209Z,100036.34
2018-01-06T05:45:05.838Z,100042.78
2018-01-06T05:47:33.416Z,100045.84
2018-01-06T05:50:01.009Z,100051.70
2018-01-06T05:52:28.640Z,100051.73
2018-01-06T05:54:56.221Z,100052.04
2018-01-06T05:57:24.103Z,100058.19
2018-01-06T05:59:51.687Z,100060.16
2018-01-06T06:02:19.263Z,100054.04
2018-01-06T06:04:46.868Z,100057.82
2018-01-06T06:07:14.776Z,100064.88
2018-01-06T06:09:42.725Z,100067.52
2018-01-06T06:12:10.314Z,100067.19
2018-01-06T06:14:37.896Z,100069.67
2018-01-06T06:17:05.526Z,100074.89
2018-01-06T06:19:33.108Z,100066.44
2018-01-06T06:22:00.736Z,100074.86
2018-01-06T06:24:28.359Z,100067.65
2018-01-06T06:26:56.008Z,100073.16
2018-01-06T06:29:23.945Z,100073.43
2018-01-06T06:31:51.808Z,100077.09
2018-01-06T06:34:19.475Z,100080.00
2018-01-06T06:36:47.113Z,100086.88
2018-01-06T06:39:14.689Z,100086.53
2018-01-06T06:41:42.294Z,100088.88
2018-01-06T06:44:09.870Z,100090.09
2018-01-06T06:46:37.456Z,100096.25
2018-01-06T06:49:05.076Z,100094.70
2018-01-06T06:51:32.670Z,100102.30
2018-01-06T06:54:00.648Z,100096.78
2018-01-06T06:56:28.308Z,100097.80
2018-01-06T06:58:55.908Z,100103.76
2018-01-06T07:01:23.560Z,100110.87
2018-01-06T07:03:51.424Z,100108.64
2018-01-06T07:06:19.008Z,100115.06
2018-01-06T07:08:46.642Z,100111.36
2018-01-06T07:11:14.256Z,100115.33
2018-01-06T07:13:41.907Z,100119.63
2018-01-06T07:16:09.839Z,100122.08
2018-01-06T07:18:37.436Z,100126.70
2018-01-06T07:21:05.054Z,100132.81
2018-01-06T07:23:32.649Z,100142.34
2018-01-06T07:26:00.279Z,100148.87
2018-01-06T07:28:27.950Z,100147.82
2018-01-06T07:30:55.532Z,100154.92
2018-01-06T07:33:23.148Z,100156.02
2018-01-06T07:35:50.736Z,100167.02
2018-01-06T07:38:18.397Z,100179.45
2018-01-06T07:40:45.979Z,100182.03
2018-01-06T07:43:13.560Z,100185.58
2018-01-06T07:45:41.180Z,100208.98
2018-01-06T07:48:08.843Z,100201.20
2018-01-06T07:50:36.480Z,100213.80
2018-01-06T07:53:04.065Z,100211.82
2018-01-06T07:55:31.928Z,100221.66
2018-01-06T07:58:01.433Z,100228.54
2018-01-06T08:00:29.075Z,100220.63
2018-01-06T08:02:56.709Z,100222.67
2018-01-06T08:05:24.304Z,100234.17
2018-01-06T08:07:51.911Z,100238.15
2018-01-06T08:10:19.515Z,100229.63
2018-01-06T08:12:47.411Z,100229.85
2018-01-06T08:15:15.047Z,100236.73
2018-01-06T08:17:42.678Z,100246.45
2018-01-06T08:20:10.286Z,100244.63
2018-01-06T08:22:37.931Z,100238.66
2018-01-06T08:25:05.835Z,100246.63
2018-01-06T08:27:33.475Z,100242.39
2018-01-06T08:30:01.092Z,100248.94
2018-01-06T08:32:28.694Z,100242.66
2018-01-06T08:34:56.309Z,100244.40
2018-01-06T08:37:23.888Z,100246.89
2018-01-06T08:39:51.547Z,100254.00
2018-01-06T08:42:19.123Z,100253.53
2018-01-06T08:44:46.697Z,100255.53
2018-01-06T08:47:14.582Z,100264.18
2018-01-06T08:49:42.176Z,100268.41
2018-01-06T08:52:09.837Z,100267.52
2018-01-06T08:54:37.452Z,100266.61
2018-01-06T08:57:05.096Z,100275.62
2018-01-06T08:59:32.703Z,100271.67
2018-01-06T09:02:00.280Z,100278.71
2018-01-06T09:04:27.934Z,100285.98
2018-01-06T09:06:55.807Z,100288.64
2018-01-06T09:09:23.467Z,100282.59
2018-01-06T09:11:51.435Z,100291.99
2018-01-06T09:14:19.017Z,100301.36
2018-01-06T09:16:46.639Z,100304.98
2018-01-06T09:19:14.546Z,100304.23
2018-01-06T09:21:42.493Z,100307.47
2018-01-06T09:24:10.227Z,100307.07
2018-01-06T09:26:37.800Z,100310.32
2018-01-06T09:29:05.789Z,100302.84
2018-01-06T09:31:33.375Z,100315.38
2018-01-06T09:34:01.227Z,100315.86
2018-01-06T09:36:29.207Z,100312.89
2018-01-06T09:38:56.777Z,100316.38
2018-01-06T09:41:24.416Z,100320.51
2018-01-06T09:43:52.289Z,100323.73
2018-01-06T09:46:19.885Z,100322.32
2018-01-06T09:48:47.814Z,100329.03
2018-01-06T09:51:15.387Z,100342.72
2018-01-06T09:53:43.021Z,100348.38
2018-01-06T09:56:10.635Z,100349.29
2018-01-06T09:58:38.270Z,100342.73
2018-01-06T10:01:05.904Z,100348.53
2018-01-06T10:03:33.521Z,100342.56
2018-01-06T10:06:01.159Z,100347.20
2018-01-06T10:08:28.758Z,100340.91
2018-01-06T10:10:56.468Z,100344.92
2018-01-06T10:13:24.123Z,100349.88
2018-01-06T10:15:52.412Z,100353.88
2018-01-06T10:18:20.046Z,100354.91
2018-01-06T10:20:47.953Z,100346.42
2018-01-06T10:23:15.813Z,100346.42
2018-01-06T10:25:43.687Z,100352.16
2018-01-06T10:28:11.276Z,100357.98
2018-01-06T10:30:38.916Z,100350.28
2018-01-06T10:33:06.508Z,100348.87
2018-01-06T10:35:34.112Z,100341.88
2018-01-06T10:38:01.740Z,100346.30
2018-01-06T10:40:29.326Z,100339.56
2018-01-06T10:42:57.316Z,100343.88
2018-01-06T10:45:25.201Z,100347.64
2018-01-06T10:47:52.784Z,100342.46
2018-01-06T10:50:20.396Z,100339.13
2018-01-06T10:52:48.000Z,100338.91
2018-01-06T10:55:15.642Z,100338.55
2018-01-06T10:57:43.613Z,100346.72
2018-01-06T11:00:11.478Z,100357.11
2018-01-06T11:02:39.098Z,100350.73
2018-01-06T11:05:06.696Z,100351.02
2018-01-06T11:07:34.315Z,100355.48
2018-01-06T11:10:01.897Z,100358.47
2018-01-06T11:12:29.497Z,100370.83
2018-01-06T11:14:57.452Z,100370.77
2018-01-06T11:17:25.063Z,100370.59
2018-01-06T11:19:52.711Z,100379.54
2018-01-06T11:22:20.308Z,100383.47
2018-01-06T11:24:48.231Z,100388.08
2018-01-06T11:27:15.901Z,100386.67
2018-01-06T11:29:43.840Z,100393.33
2018-01-06T11:32:11.464Z,100394.73
2018-01-06T11:34:39.086Z,100404.11
2018-01-06T11:37:06.683Z,100409.80
2018-01-06T11:39:34.453Z,100411.02
2018-01-06T11:42:02.073Z,100414.53
2018-01-06T11:44:29.715Z,100411.45
2018-01-06T11:46:57.863Z,100412.22
2018-01-06T11:49:25.507Z,100404.80
2018-01-06T11:51:53.233Z,100409.80
2018-01-06T11:54:21.191Z,100416.52
2018-01-06T11:56:48.827Z,100405.19
2018-01-06T11:59:16.420Z,100407.91
2018-01-06T12:01:44.448Z,100405.47
2018-01-06T12:04:12.326Z,100410.42
2018-01-06T12:06:39.989Z,100411.88
2018-01-06T12:09:07.621Z,100419.03
2018-01-06T12:11:35.241Z,100420.87
2018-01-06T12:14:02.881Z,100426.83
2018-01-06T12:16:30.527Z,100417.52
2018-01-06T12:18:58.154Z,100428.98
2018-01-06T12:21:34.134Z,100427.64
2018-01-06T12:24:09.435Z,100427.05
2018-01-06T12:26:37.717Z,100427.60
2018-01-06T12:29:05.442Z,100433.58
2018-01-06T12:31:33.046Z,100436.41
2018-01-06T12:34:00.668Z,100435.98
2018-01-06T12:36:28.261Z,100436.61
2018-01-06T12:38:55.922Z,100435.83
2018-01-06T12:41:23.521Z,100438.20
2018-01-06T12:43:51.153Z,100438.87
2018-01-06T12:46:18.810Z,100442.77
2018-01-06T12:48:46.414Z,100450.80
2018-01-06T12:51:14.048Z,100456.06
2018-01-06T12:53:41.690Z,100458.31
2018-01-06T12:56:09.575Z,100455.22
2018-01-06T12:58:37.284Z,100460.42
2018-01-06T13:01:04.887Z,100458.18
2018-01-06T13:03:32.557Z,100457.77
2018-01-06T13:06:00.160Z,100460.87
2018-01-06T13:08:27.766Z,100464.58
2018-01-06T13:10:55.400Z,100463.97
2018-01-06T13:13:23.042Z,100473.89
2018-01-06T13:15:50.784Z,100470.51
2018-01-06T13:18:18.406Z,100475.22
2018-01-06T13:20:46.307Z,100483.23
2018-01-06T13:23:14.261Z,100474.86
2018-01-06T13:25:41.921Z,100480.67
2018-01-06T13:28:09.605Z,100479.87
2018-01-06T13:30:37.235Z,100480.25
2018-01-06T13:33:04.813Z,100489.02
2018-01-06T13:35:32.482Z,100496.77
2018-01-06T13:38:00.113Z,100495.57
2018-01-06T13:40:27.867Z,100500.49
2018-01-06T13:42:55.457Z,100504.64
2018-01-06T13:45:23.257Z,100505.05
2018-01-06T13:47:50.869Z,100502.48
2018-01-06T13:50:18.514Z,100504.17
2018-01-06T13:52:46.128Z,100502.98
2018-01-06T13:55:13.769Z,100506.31
2018-01-06T13:57:41.649Z,100512.20
2018-01-06T14:00:09.313Z,100521.44
2018-01-06T14:02:36.952Z,100527.83
2018-01-06T14:05:04.841Z,100523.11
2018-01-06T14:07:32.581Z,100524.09
2018-01-06T14:10:00.676Z,100531.16
2018-01-06T14:12:28.301Z,100537.55
2018-01-06T14:14:55.907Z,100534.98
2018-01-06T14:17:23.533Z,100527.59
2018-01-06T14:19:51.152Z,100528.51
2018-01-06T14:22:18.792Z,100531.23
2018-01-06T14:24:47.214Z,100532.50
2018-01-06T14:27:14.816Z,100543.44
2018-01-06T14:29:42.562Z,100544.45
2018-01-06T14:32:10.270Z,100545.02
2018-01-06T14:34:37.888Z,100558.65
2018-01-06T14:37:05.499Z,100552.91
2018-01-06T14:39:33.108Z,100556.13
2018-01-06T14:42:01.252Z,100561.86
2018-01-06T14:44:29.016Z,100567.02
2018-01-06T14:46:56.788Z,100557.56
2018-01-06T14:49:24.720Z,100560.79
2018-01-06T14:51:54.295Z,100551.33
2018-01-06T14:54:21.969Z,100576.98
2018-01-06T14:56:49.582Z,100582.20
2018-01-06T14:59:17.236Z,100568.03
2018-01-06T15:01:45.083Z,100573.89
2018-01-06T15:04:12.671Z,100570.83
2018-01-06T15:06:40.332Z,100584.68
2018-01-06T15:09:07.927Z,100586.24
2018-01-06T15:11:35.595Z,100587.34
2018-01-06T15:14:03.208Z,100579.78
2018-01-06T15:16:31.169Z,100578.30
2018-01-06T15:18:58.783Z,100582.26
2018-01-06T15:21:26.411Z,100582.53
2018-01-06T15:23:54.060Z,100583.25
2018-01-06T15:26:21.669Z,100587.31
2018-01-06T15:28:49.385Z,100587.48
2018-01-06T15:31:17.243Z,100589.82
2018-01-06T15:33:44.936Z,100590.31
2018-01-06T15:36:12.820Z,100592.06
2018-01-06T15:38:40.477Z,100594.38
2018-01-06T15:41:08.108Z,100596.54
2018-01-06T15:43:35.732Z,100603.67
2018-01-06T15:46:03.638Z,100608.91
2018-01-06T15:48:31.271Z,100612.63
2018-01-06T15:50:58.880Z,100624.16
2018-01-06T15:53:26.480Z,100623.33
2018-01-06T15:55:54.390Z,100619.84
2018-01-06T15:58:21.996Z,100623.66
2018-01-06T16:00:49.664Z,100632.95
2018-01-06T16:03:17.992Z,100631.45
2018-01-06T16:05:45.631Z,100639.11
2018-01-06T16:08:13.249Z,100657.73
2018-01-06T16:10:40.872Z,100665.31
2018-01-06T16:13:08.492Z,100666.23
2018-01-06T16:15:36.087Z,100667.55
2018-01-06T16:18:03.980Z,100672.45
2018-01-06T16:20:31.597Z,100678.64
2018-01-06T16:22:59.187Z,100686.52
2018-01-06T16:25:26.873Z,100680.46
2018-01-06T16:27:54.475Z,100681.22
2018-01-06T16:30:22.087Z,100693.99
2018-01-06T16:32:49.704Z,100694.91
2018-01-06T16:35:17.339Z,100701.85
2018-01-06T16:37:44.983Z,100714.70
2018-01-06T16:40:12.567Z,100723.04
2018-01-06T16:42:40.159Z,100723.88
2018-01-06T16:45:07.803Z,100722.85
2018-01-06T16:47:35.387Z,100725.02
2018-01-06T16:50:03.051Z,100721.94
2018-01-06T16:52:30.674Z,100722.63
2018-01-06T16:54:58.480Z,100725.20
2018-01-06T16:57:26.126Z,100725.20
2018-01-06T16:59:53.718Z,100727.86
2018-01-06T17:02:21.359Z,100734.08
2018-01-06T17:04:49.035Z,100740.91
2018-01-06T17:07:16.632Z,100736.58
2018-01-06T17:09:44.276Z,100747.69
2018-01-06T17:12:11.876Z,100753.98
2018-01-06T17:14:39.537Z,100760.62
2018-01-06T17:17:07.121Z,100754.59
2018-01-06T17:19:34.700Z,100768.09
2018-01-06T17:22:02.361Z,100778.71
2018-01-06T17:24:30.206Z,100782.13
2018-01-06T17:26:57.854Z,100790.23
2018-01-06T17:29:25.441Z,100794.07
2018-01-06T17:31:53.040Z,100793.23
2018-01-06T17:34:20.916Z,100790.73
2018-01-06T17:36:48.578Z,100795.05
2018-01-06T17:39:16.207Z,100799.95
2018-01-06T17:41:43.805Z,100798.55
2018-01-06T17:44:11.669Z,100801.98
2018-01-06T17:46:39.288Z,100804.56
2018-01-06T17:49:06.887Z,100817.70
2018-01-06T17:51:34.525Z,100815.52
2018-01-06T17:54:02.121Z,100822.94
2018-01-06T17:56:29.979Z,100833.05
2018-01-06T17:58:57.859Z,100841.74
2018-01-06T18:01:25.725Z,100837.77
2018-01-06T18:03:53.410Z,100839.02
2018-01-06T18:06:21.022Z,100834.69
2018-01-06T18:08:48.656Z,100834.59
2018-01-06T18:11:16.271Z,100826.91
2018-01-06T18:13:44.238Z,100842.92
2018-01-06T18:16:12.237Z,100849.97
2018-01-06T18:18:39.832Z,100856.39
2018-01-06T18:21:07.741Z,100863.59
2018-01-06T18:23:35.718Z,100868.63
2018-01-06T18:26:03.329Z,100879.66
2018-01-06T18:28:30.968Z,100883.42
2018-01-06T18:30:58.621Z,100881.41
2018-01-06T18:33:26.211Z,100871.77
2018-01-06T18:35:53.840Z,100869.79
2018-01-06T18:38:21.459Z,100876.91
2018-01-06T18:40:49.149Z,100883.70
2018-01-06T18:43:16.768Z,100895.02
2018-01-06T18:45:44.368Z,100897.67
2018-01-06T18:48:11.981Z,100903.23
2018-01-06T18:50:39.588Z,100912.59
2018-01-06T18:53:07.224Z,100903.11
2018-01-06T18:55:34.909Z,100910.72
2018-01-06T18:58:02.505Z,100917.50
2018-01-06T19:00:30.450Z,100929.13
2018-01-06T19:02:58.054Z,100923.20
2018-01-06T19:05:25.747Z,100930.55
2018-01-06T19:07:53.372Z,100933.86
2018-01-06T19:10:20.953Z,100940.32
2018-01-06T19:12:48.576Z,100943.95
2018-01-06T19:15:16.207Z,100940.44
2018-01-06T19:17:43.825Z,100945.05
2018-01-06T19:20:11.425Z,100937.83
2018-01-06T19:22:39.001Z,100946.00
2018-01-06T19:25:06.628Z,100957.66
2018-01-06T19:27:34.225Z,100967.75
2018-01-06T19:30:02.103Z,100975.29
2018-01-06T19:32:29.982Z,100966.98
2018-01-06T19:34:57.609Z,100972.22
2018-01-06T19:37:25.228Z,100976.62
2018-01-06T19:39:52.838Z,100981.23
2018-01-06T19:42:20.492Z,100976.55
2018-01-06T19:44:48.091Z,100981.27
2018-01-06T19:47:16.171Z,100996.63
2018-01-06T19:49:43.772Z,101003.32
2018-01-06T19:52:11.362Z,101015.19
2018-01-06T19:54:38.983Z,101021.12
2018-01-06T19:57:06.679Z,101028.38
2018-01-06T19:59:34.278Z,101022.30
2018-01-06T20:02:02.143Z,101028.87
2018-01-06T20:04:30.242Z,101024.19
2018-01-06T20:06:57.930Z,101029.73
2018-01-06T20:09:25.532Z,101031.97
2018-01-06T20:11:53.142Z,101036.02
2018-01-06T20:14:20.813Z,101039.58
2018-01-06T20:16:48.433Z,101048.44
2018-01-06T20:19:16.073Z,101057.93
2018-01-06T20:21:44.078Z,101061.31
2018-01-06T20:24:11.701Z,101068.50
2018-01-06T20:26:39.341Z,101074.70
2018-01-06T20:29:07.022Z,101077.63
2018-01-06T20:31:34.710Z,101089.22
2018-01-06T20:34:02.309Z,101084.50
2018-01-06T20:36:29.921Z,101088.30
2018-01-06T20:38:57.553Z,101093.19
2018-01-06T20:41:25.163Z,101094.52
2018-01-06T20:43:52.792Z,101098.01
2018-01-06T20:46:20.400Z,101111.06
2018-01-06T20:48:48.068Z,101112.25
2018-01-06T20:51:15.718Z,101116.30
2018-01-06T20:53:43.445Z,101121.31
2018-01-06T20:56:11.510Z,101123.55
2018-01-06T20:58:39.125Z,101130.95
2018-01-06T21:01:06.713Z,101124.38
2018-01-06T21:03:34.368Z,101128.53
2018-01-06T21:06:01.981Z,101131.23
2018-01-06T21:08:29.880Z,101142.08
2018-01-06T21:10:58.884Z,101143.27
2018-01-06T21:13:27.076Z,101142.31
2018-01-06T21:15:54.672Z,101143.91
2018-01-06T21:18:22.392Z,101145.63
2018-01-06T21:20:50.169Z,101150.85
2018-01-06T21:23:17.945Z,101155.22
2018-01-06T21:25:45.712Z,101154.34
2018-01-06T21:28:13.290Z,101158.47
2018-01-06T21:30:40.889Z,101170.70
2018-01-06T21:33:08.525Z,101178.67
2018-01-06T21:35:36.130Z,101182.09
2018-01-06T21:38:03.766Z,101189.80
2018-01-06T21:40:31.368Z,101185.63
2018-01-06T21:42:59.060Z,101188.44
2018-01-06T21:45:26.705Z,101190.34
2018-01-06T21:47:54.411Z,101192.55
2018-01-06T21:50:22.066Z,101200.69
2018-01-06T21:52:49.661Z,101201.03
2018-01-06T21:55:17.264Z,101208.94
2018-01-06T21:57:44.977Z,101215.16
2018-01-06T22:00:12.902Z,101224.72
2018-01-06T22:02:40.542Z,101230.32
2018-01-06T22:05:08.204Z,101225.08
2018-01-06T22:07:35.825Z,101228.51
2018-01-06T22:10:04.187Z,101238.75
2018-01-06T22:12:31.780Z,101249.72
2018-01-06T22:14:59.836Z,101244.28
2018-01-06T22:17:27.416Z,101246.23
2018-01-06T22:19:55.011Z,101249.85
2018-01-06T22:22:22.641Z,101253.84
2018-01-06T22:24:50.225Z,101267.73
2018-01-06T22:27:17.840Z,101271.55
2018-01-06T22:29:45.488Z,101271.06
2018-01-06T22:32:13.101Z,101274.14
2018-01-06T22:34:40.721Z,101282.79
2018-01-06T22:37:09.512Z,101287.86
2018-01-06T22:39:37.198Z,101285.96
2018-01-06T22:42:04.850Z,101291.84
2018-01-06T22:44:32.428Z,101297.24
2018-01-06T22:47:00.033Z,101296.78
2018-01-06T22:49:27.628Z,101299.70
2018-01-06T22:51:55.245Z,101294.49
2018-01-06T22:54:22.908Z,101295.72
2018-01-06T22:56:50.520Z,101310.10
2018-01-06T22:59:18.225Z,101307.71
2018-01-06T23:01:45.808Z,101318.25
2018-01-06T23:04:13.423Z,101317.83
2018-01-06T23:06:41.015Z,101315.08
2018-01-06T23:09:08.625Z,101317.31
2018-01-06T23:11:36.253Z,101326.48
2018-01-06T23:14:03.894Z,101325.78
2018-01-06T23:16:31.522Z,101336.31
2018-01-06T23:18:59.242Z,101333.44
2018-01-06T23:21:26.837Z,101337.22
2018-01-06T23:23:54.489Z,101337.00
2018-01-06T23:26:22.072Z,101347.30
2018-01-06T23:28:49.833Z,101356.02
2018-01-06T23:31:17.472Z,101351.14
2018-01-06T23:33:45.087Z,101355.66
2018-01-06T23:36:12.839Z,101357.85
2018-01-06T23:38:40.788Z,101363.38
2018-01-06T23:41:08.861Z,101362.64
2018-01-06T23:43:36.520Z,101373.66
2018-01-06T23:46:04.162Z,101373.23
2018-01-06T23:48:31.823Z,101373.78
2018-01-06T23:50:59.405Z,101382.28
2018-01-06T23:53:27.028Z,101378.18
2018-01-06T23:55:54.704Z,101392.70
2018-01-06T23:58:22.339Z,101390.41
